Federal Cedar — V7NK8 — position and weather

sailwx.info

Track history (hours):
 
Tides and Currents Weather Stations Pressure Air Temp Water Temp Dewpoint Dewpoint Depression Visibility Wind Speed Wind Dir Waves Ship Positions

Federal Cedar

Last reported at 2017-Nov-12 10:03 UTC. Time now 2017-Nov-19 01:33 UTC.
Position N 45°40' W 086°07'.

Length 200 m; draft 6.5 m.

Type: Cargo ship. MMSI: 538006473.

Date/timePositionNaut miles runAvg speedWind from/ knotsBaromVisibWave heightAir tempDewpointWater temp
2017-Nov-12 10:03N 45°40' W 086°07'112.2
2017-Nov-12 09:59N 45°41' W 086°06'713.1
2017-Nov-12 09:29N 45°44' W 085°58'613.1
2017-Nov-12 09:00N 45°47' W 085°50'613.1
2017-Nov-12 08:31N 45°50' W 085°42'713.0
2017-Nov-12 08:00N 45°54' W 085°34'713.2
2017-Nov-12 07:31N 45°53' W 085°24'713.3
2017-Nov-12 07:01N 45°53' W 085°15'713.0
2017-Nov-12 06:31N 45°52' W 085°06'612.8
2017-Nov-12 06:01N 45°51' W 084°57'612.7
2017-Nov-12 05:31N 45°49' W 084°48'612.3
2017-Nov-12 05:01N 45°48' W 084°39'713.4
2017-Nov-12 04:31N 45°44' W 084°31'612.8
2017-Nov-12 04:01N 45°41' W 084°23'611.9
2017-Nov-12 03:31N 45°41' W 084°15'713.4
2017-Nov-12 02:59N 45°38' W 084°05'613.3
2017-Nov-12 02:30N 45°35' W 083°57'713.5
2017-Nov-12 02:00N 45°32' W 083°48'713.5
2017-Nov-12 01:31N 45°29' W 083°40'713.5
2017-Nov-12 01:00N 45°26' W 083°31'713.3
2017-Nov-12 00:30N 45°23' W 083°23'  
2017-Nov-06 22:08N 45°14' W 074°09'3 8.0
2017-Nov-06 21:45N 45°13' W 074°05'2 8.1
2017-Nov-06 21:30N 45°13' W 074°02'4 8.8
2017-Nov-06 21:00N 45°16' W 073°57'2 4.8
2017-Nov-06 20:30N 45°18' W 073°56'  
Track history (hours):
 
Tides and Currents Weather Stations Pressure Air Temp Water Temp Dewpoint Dewpoint Depression Visibility Wind Speed Wind Dir Waves Ship Positions

Federal Cedar

Last reported at 2017-Nov-12 10:03 UTC. Time now 2017-Nov-19 01:33 UTC.
Position N 45°40' W 086°07'.

Length 200 m; draft 6.5 m.

Type: Cargo ship. MMSI: 538006473.

Date/timePositionNaut miles runAvg speedWind from/ knotsBaromVisibWave heightAir tempDewpointWater temp
2017-Nov-12 10:03N 45°40' W 086°07'112.2
2017-Nov-12 09:59N 45°41' W 086°06'713.1
2017-Nov-12 09:29N 45°44' W 085°58'613.1
2017-Nov-12 09:00N 45°47' W 085°50'613.1
2017-Nov-12 08:31N 45°50' W 085°42'713.0
2017-Nov-12 08:00N 45°54' W 085°34'713.2
2017-Nov-12 07:31N 45°53' W 085°24'713.3
2017-Nov-12 07:01N 45°53' W 085°15'713.0
2017-Nov-12 06:31N 45°52' W 085°06'612.8
2017-Nov-12 06:01N 45°51' W 084°57'612.7
2017-Nov-12 05:31N 45°49' W 084°48'612.3
2017-Nov-12 05:01N 45°48' W 084°39'713.4
2017-Nov-12 04:31N 45°44' W 084°31'612.8
2017-Nov-12 04:01N 45°41' W 084°23'611.9
2017-Nov-12 03:31N 45°41' W 084°15'713.4
2017-Nov-12 02:59N 45°38' W 084°05'613.3
2017-Nov-12 02:30N 45°35' W 083°57'713.5
2017-Nov-12 02:00N 45°32' W 083°48'713.5
2017-Nov-12 01:31N 45°29' W 083°40'713.5
2017-Nov-12 01:00N 45°26' W 083°31'713.3
2017-Nov-12 00:30N 45°23' W 083°23'  
2017-Nov-06 22:08N 45°14' W 074°09'3 8.0
2017-Nov-06 21:45N 45°13' W 074°05'2 8.1
2017-Nov-06 21:30N 45°13' W 074°02'4 8.8
2017-Nov-06 21:00N 45°16' W 073°57'2 4.8
2017-Nov-06 20:30N 45°18' W 073°56'  

Dump ship's entire track history